Torrey, UT (84775)

6:32 AM MST on November 23, 2014 (GMT -0700)
RAWS LARB HOLLOW UT US | Change Station
CLOSE
Current Station
Personal Weather Station
Location: Teasdale, UT
Elevation: 8508 ft
Nearby Weather Stations

Elev 8508 ft 38.12 °N, 111.32 °W | Updated 28 minutes ago

Overcast
Overcast
20 °F
Feels Like 13 °F
N
5
Wind Variable Wind from WNW
Gusts 19.0 mph

Today
High -- | Low -- °F
--% Chance of Precip.
Yesterday
High -- | Low -- °F
Precip. -- in
7:16 AM 5:09 PM
New Moon, 1% visible
Pressure 30.04 in
Visibility 9.0 miles
Clouds Scattered Clouds 500 ft
Windchill 13 °F
Dew Point 10 °F
Humidity 64%
Rainfall 0.00 in
Snow Depth Not available.
UV 0 out of 12
Pollen .10 out of 12
Air Quality Not available.
Flu Activity Not available.
SPECI KBCE 231317Z AUTO 30014G20KT 9SM -SN SCT005 M05/M08 A3004 RMK AO2 P0001 T10501078

More Conditions Fewer Conditions

Pressure 30.04 in
Visibility 9.0 miles
Clouds Scattered Clouds 500 ft
Windchill 13 °F
Dew Point 10 °F
Humidity 64%
Rainfall 0.00 in
Snow Depth Not available.
UV 0 out of 12
Pollen .10 out of 12
Air Quality Not available.
Flu Activity Not available.
SPECI KBCE 231317Z AUTO 30014G20KT 9SM -SN SCT005 M05/M08 A3004 RMK AO2 P0001 T10501078

More Conditions Fewer Conditions

10-Day Weather Forecast

Almanac

Astronomy

Nov. 23, 2014 Rise Set
Actual Time
Civil Twilight
Nautical Twilight
Astronomical Twilight
Moon
Length of Visible Light
Length of Day
Tomorrow will be .
, % of the Moon is Illuminated

Today's Extremes

State Highs State Lows

Community

WunderPhotos

Upload Photos

1,773,057 photos uploaded!

WunderBlogs® & News

Nearby

Air Quality

  Air Quality AQ Index Pollutant
Not available.

Snow Depth

Station Depth Elevation

Earthquake Activity

City Distance Mag. Time & Date
Minimum magnitude displayed is 2.5.

Coastal Water Temperatures

Place Temperature

Nearby Weather Stations